OJAM/ADJ METAR and TAF weather

Enter ICAO airport designator
Station Type Date Time Source
OJAM METAR 2022/09/28 19:00 UTC NOAA

OJAM 281900Z 00000KT 6000 NSC 22/11 Q1016 NOSIG


Station Type Date Time Source
OJAM Decoded METAR 2022/09/28 19:00 UTC NOAA

Amman Airport, Jordan (OJAM) 31-59N 035-59E 768M
Sep 28, 2022 - 03:00 PM EDT / 2022.09.28 1900 UTC
Wind: Calm:0
Visibility: 3 mile(s):0
Temperature: 71 F (22 C)
Dew Point: 51 F (11 C)
Relative Humidity: 49%
Pressure (altimeter): 30.00 in. Hg (1016 hPa)
ob: OJAM 281900Z 00000KT 6000 NSC 22/11 Q1016 NOSIG
cycle: 19

Station Type Date Time Source
OJAM TAF 2022/09/28 18:13 UTC NOAA

TAF OJAM 281650Z 2818/2924 29008KT 5000 HZ NSC PROB30 2902/2906 3000

Example: see airport list